createdAt,value
2018-07-15T00:00:58.664Z,46.95
2018-07-15T00:03:26.775Z,47.05
2018-07-15T00:05:54.851Z,48.68
2018-07-15T00:08:23.099Z,49.04
2018-07-15T00:10:51.269Z,49.05
2018-07-15T00:13:19.363Z,47.95
2018-07-15T00:15:47.561Z,48.89
2018-07-15T00:18:16.600Z,49.61
2018-07-15T00:20:44.647Z,48.63
2018-07-15T00:23:12.723Z,47.82
2018-07-15T00:25:40.824Z,48.30
2018-07-15T00:28:08.942Z,49.03
2018-07-15T00:30:37.242Z,49.48
2018-07-15T00:33:06.047Z,50.53
2018-07-15T00:35:34.147Z,49.05
2018-07-15T00:38:02.247Z,48.74
2018-07-15T00:40:30.335Z,49.94
2018-07-15T00:42:58.439Z,50.19
2018-07-15T00:45:26.576Z,50.08
2018-07-15T00:47:55.153Z,50.33
2018-07-15T00:50:23.368Z,50.00
2018-07-15T00:52:51.578Z,51.32
2018-07-15T00:55:19.667Z,49.53
2018-07-15T00:57:47.742Z,50.08
2018-07-15T01:00:21.532Z,50.24
2018-07-15T01:02:49.654Z,49.57
2018-07-15T01:05:17.743Z,50.76
2018-07-15T01:07:46.873Z,50.77
2018-07-15T01:10:14.951Z,52.55
2018-07-15T01:12:43.038Z,52.02
2018-07-15T01:15:11.124Z,52.04
2018-07-15T01:17:39.226Z,50.69
2018-07-15T01:20:08.742Z,51.20
2018-07-15T01:22:37.218Z,51.10
2018-07-15T01:25:05.432Z,50.86
2018-07-15T01:27:33.462Z,52.77
2018-07-15T01:30:01.545Z,51.94
2018-07-15T01:32:29.729Z,53.66
2018-07-15T01:34:57.883Z,52.28
2018-07-15T01:37:25.981Z,53.30
2018-07-15T01:39:54.071Z,54.14
2018-07-15T01:42:22.128Z,52.70
2018-07-15T01:44:50.199Z,52.40
2018-07-15T01:47:18.267Z,52.25
2018-07-15T01:49:47.034Z,52.64
2018-07-15T01:52:15.166Z,53.79
2018-07-15T01:54:43.242Z,53.09
2018-07-15T01:57:11.370Z,53.62
2018-07-15T01:59:39.483Z,54.35
2018-07-15T02:02:07.613Z,52.61
2018-07-15T02:04:36.086Z,53.78
2018-07-15T02:07:04.220Z,53.38
2018-07-15T02:09:32.316Z,52.40
2018-07-15T02:12:00.375Z,54.17
2018-07-15T02:14:28.459Z,52.16
2018-07-15T02:16:56.512Z,53.12
2018-07-15T02:19:24.598Z,52.80
2018-07-15T02:21:52.880Z,53.81
2018-07-15T02:24:21.019Z,52.85
2018-07-15T02:26:49.147Z,53.35
2018-07-15T02:29:17.543Z,52.49
2018-07-15T02:31:45.619Z,52.90
2018-07-15T02:34:13.718Z,55.03
2018-07-15T02:36:41.864Z,54.70
2018-07-15T02:39:11.166Z,55.63
2018-07-15T02:41:39.335Z,54.09
2018-07-15T02:44:07.611Z,54.47
2018-07-15T02:46:36.398Z,55.19
2018-07-15T02:49:04.487Z,54.33
2018-07-15T02:51:39.311Z,53.79
2018-07-15T02:54:07.700Z,54.60
2018-07-15T02:56:35.804Z,54.71
2018-07-15T02:59:03.952Z,55.92
2018-07-15T03:01:32.108Z,54.54
2018-07-15T03:04:00.175Z,56.06
2018-07-15T03:06:28.357Z,56.77
2018-07-15T03:08:56.452Z,54.71
2018-07-15T03:11:24.543Z,54.02
2018-07-15T03:13:52.723Z,54.59
2018-07-15T03:16:20.811Z,55.01
2018-07-15T03:18:48.887Z,54.58
2018-07-15T03:21:17.692Z,56.52
2018-07-15T03:23:45.762Z,56.11
2018-07-15T03:26:13.849Z,56.44
2018-07-15T03:28:42.051Z,55.43
2018-07-15T03:31:11.241Z,55.09
2018-07-15T03:33:39.468Z,55.46
2018-07-15T03:36:07.599Z,55.68
2018-07-15T03:38:35.701Z,55.57
2018-07-15T03:41:03.752Z,55.85
2018-07-15T03:43:31.814Z,55.66
2018-07-15T03:45:59.899Z,57.34
2018-07-15T03:48:28.042Z,56.52
2018-07-15T03:50:56.161Z,57.37
2018-07-15T03:53:24.410Z,57.75
2018-07-15T03:55:52.477Z,57.54
2018-07-15T03:58:20.646Z,56.74
2018-07-15T04:00:48.740Z,56.92
2018-07-15T04:03:17.769Z,57.59
2018-07-15T04:05:45.831Z,56.65
2018-07-15T04:08:14.039Z,57.22
2018-07-15T04:10:42.159Z,56.13
2018-07-15T04:13:10.400Z,57.05
2018-07-15T04:15:38.489Z,57.43
2018-07-15T04:18:07.252Z,56.11
2018-07-15T04:20:36.767Z,57.03
2018-07-15T04:23:06.162Z,58.09
2018-07-15T04:25:35.149Z,56.73
2018-07-15T04:28:04.099Z,55.95
2018-07-15T04:30:32.238Z,56.82
2018-07-15T04:33:00.321Z,56.11
2018-07-15T04:35:28.878Z,56.31
2018-07-15T04:37:56.984Z,58.99
2018-07-15T04:40:25.092Z,58.77
2018-07-15T04:42:53.222Z,58.57
2018-07-15T04:45:21.350Z,58.38
2018-07-15T04:50:39.753Z,57.82
2018-07-15T04:53:07.832Z,58.58
2018-07-15T04:55:35.970Z,58.21
2018-07-15T04:58:04.418Z,57.78
2018-07-15T05:00:33.013Z,57.30
2018-07-15T05:03:01.096Z,57.05
2018-07-15T05:05:29.213Z,57.79
2018-07-15T05:07:57.365Z,57.27
2018-07-15T05:10:25.557Z,57.49
2018-07-15T05:12:53.648Z,58.19
2018-07-15T05:15:22.015Z,57.41
2018-07-15T05:17:50.118Z,57.66
2018-07-15T05:20:18.286Z,58.15
2018-07-15T05:22:46.484Z,57.55
2018-07-15T05:25:15.027Z,57.41
2018-07-15T05:27:43.126Z,57.71
2018-07-15T05:30:11.278Z,58.37
2018-07-15T05:32:39.391Z,57.93
2018-07-15T05:35:07.937Z,57.90
2018-07-15T05:37:36.123Z,59.48
2018-07-15T05:40:04.349Z,58.39
2018-07-15T05:42:32.447Z,58.79
2018-07-15T05:45:00.541Z,57.74
2018-07-15T05:47:28.618Z,58.57
2018-07-15T05:49:56.693Z,58.04
2018-07-15T05:52:24.779Z,58.27
2018-07-15T05:54:52.906Z,58.15
2018-07-15T05:57:21.018Z,56.66
2018-07-15T05:59:49.735Z,56.89
2018-07-15T06:02:18.671Z,57.63
2018-07-15T06:04:46.957Z,56.90
2018-07-15T06:07:15.100Z,56.67
2018-07-15T06:09:43.316Z,57.26
2018-07-15T06:12:11.423Z,57.00
2018-07-15T06:14:40.012Z,56.79
2018-07-15T06:17:08.275Z,56.49
2018-07-15T06:19:36.379Z,56.59
2018-07-15T06:22:04.798Z,56.15
2018-07-15T06:24:32.913Z,56.22
2018-07-15T06:27:01.027Z,56.15
2018-07-15T06:29:29.214Z,56.62
2018-07-15T06:31:57.415Z,55.27
2018-07-15T06:34:25.704Z,55.86
2018-07-15T06:36:53.962Z,56.33
2018-07-15T06:39:22.102Z,56.43
2018-07-15T06:41:50.346Z,55.95
2018-07-15T06:44:19.496Z,55.21
2018-07-15T06:46:47.680Z,55.49
2018-07-15T06:49:15.867Z,55.21
2018-07-15T06:51:43.929Z,55.83
2018-07-15T06:54:12.006Z,55.07
2018-07-15T06:56:40.131Z,54.69
2018-07-15T06:59:08.258Z,55.56
2018-07-15T07:01:36.432Z,55.38
2018-07-15T07:04:04.580Z,54.61
2018-07-15T07:06:32.704Z,55.38
2018-07-15T07:09:00.860Z,54.86
2018-07-15T07:11:28.992Z,53.92
2018-07-15T07:13:57.066Z,54.09
2018-07-15T07:16:26.256Z,54.14
2018-07-15T07:18:54.713Z,54.02
2018-07-15T07:21:22.809Z,53.83
2018-07-15T07:23:51.084Z,53.29
2018-07-15T07:26:20.117Z,52.92
2018-07-15T07:28:49.020Z,52.96
2018-07-15T07:31:17.233Z,53.60
2018-07-15T07:33:45.463Z,53.02
2018-07-15T07:36:13.698Z,52.97
2018-07-15T07:38:41.901Z,52.41
2018-07-15T07:41:09.973Z,52.09
2018-07-15T07:43:38.254Z,51.47
2018-07-15T07:46:06.325Z,51.46
2018-07-15T07:48:34.603Z,51.52
2018-07-15T07:51:02.730Z,51.08
2018-07-15T07:53:30.959Z,51.50
2018-07-15T07:55:59.123Z,51.14
2018-07-15T07:58:27.259Z,49.83
2018-07-15T08:00:55.583Z,49.68
2018-07-15T08:03:23.807Z,49.65
2018-07-15T08:05:51.908Z,49.05
2018-07-15T08:08:20.029Z,48.67
2018-07-15T08:10:48.174Z,48.21
2018-07-15T08:13:16.294Z,48.36
2018-07-15T08:15:44.355Z,48.23
2018-07-15T08:18:12.529Z,48.13
2018-07-15T08:20:40.627Z,47.93
2018-07-15T08:23:08.790Z,47.98
2018-07-15T08:25:36.865Z,47.49
2018-07-15T08:28:04.941Z,46.62
2018-07-15T08:30:44.578Z,47.01
2018-07-15T08:33:12.693Z,46.65
2018-07-15T08:35:40.762Z,46.86
2018-07-15T08:38:08.920Z,46.81
2018-07-15T08:40:37.061Z,46.69
2018-07-15T08:43:05.273Z,45.38
2018-07-15T08:45:33.427Z,45.81
2018-07-15T08:48:01.638Z,46.22
2018-07-15T08:50:29.724Z,45.96
2018-07-15T08:52:57.837Z,45.17
2018-07-15T08:55:25.963Z,45.17
2018-07-15T08:57:54.346Z,45.66
2018-07-15T09:00:22.410Z,44.94
2018-07-15T09:02:50.632Z,44.80
2018-07-15T09:05:19.515Z,44.49
2018-07-15T09:07:47.672Z,44.61
2018-07-15T09:10:15.858Z,44.06
2018-07-15T09:12:44.190Z,44.13
2018-07-15T09:15:12.264Z,44.35
2018-07-15T09:17:40.399Z,44.42
2018-07-15T09:20:08.507Z,43.23
2018-07-15T09:22:36.630Z,42.47
2018-07-15T09:25:04.747Z,42.54
2018-07-15T09:27:33.003Z,42.62
2018-07-15T09:30:01.219Z,42.96
2018-07-15T09:32:29.503Z,42.81
2018-07-15T09:34:57.703Z,42.04
2018-07-15T09:37:25.827Z,42.61
2018-07-15T09:39:53.972Z,42.37
2018-07-15T09:42:22.102Z,41.30
2018-07-15T09:44:50.302Z,42.08
2018-07-15T09:47:18.419Z,42.29
2018-07-15T09:49:46.786Z,41.66
2018-07-15T09:52:14.929Z,41.14
2018-07-15T09:54:43.031Z,40.29
2018-07-15T09:57:11.238Z,40.79
2018-07-15T09:59:39.485Z,39.95
2018-07-15T10:02:08.492Z,41.31
2018-07-15T10:04:36.636Z,39.40
2018-07-15T10:07:05.086Z,39.84
2018-07-15T10:09:33.208Z,39.10
2018-07-15T10:12:01.529Z,39.41
2018-07-15T10:14:29.952Z,38.04
2018-07-15T10:16:58.019Z,38.03
2018-07-15T10:19:26.280Z,37.57
2018-07-15T10:21:54.443Z,36.50
2018-07-15T10:24:22.635Z,36.89
2018-07-15T10:26:50.763Z,36.21
2018-07-15T10:29:20.125Z,36.36
2018-07-15T10:31:48.422Z,36.46
2018-07-15T10:34:16.596Z,35.08
2018-07-15T10:36:44.709Z,34.76
2018-07-15T10:39:13.307Z,34.95
2018-07-15T10:41:41.492Z,34.99
2018-07-15T10:44:09.644Z,34.94
2018-07-15T10:46:38.244Z,34.94
2018-07-15T10:49:06.326Z,34.44
2018-07-15T10:51:34.401Z,34.38
2018-07-15T10:54:02.480Z,34.81
2018-07-15T10:56:30.613Z,35.39
2018-07-15T10:58:58.736Z,34.60
2018-07-15T11:01:26.883Z,32.70
2018-07-15T11:03:54.991Z,32.61
2018-07-15T11:06:23.156Z,33.15
2018-07-15T11:08:51.219Z,33.92
2018-07-15T11:11:20.055Z,33.31
2018-07-15T11:13:48.265Z,34.25
2018-07-15T11:16:16.351Z,33.67
2018-07-15T11:18:44.487Z,33.18
2018-07-15T11:21:12.853Z,33.34
2018-07-15T11:23:41.022Z,34.36
2018-07-15T11:26:09.178Z,34.04
2018-07-15T11:28:37.262Z,34.09
2018-07-15T11:31:05.574Z,34.33
2018-07-15T11:33:33.544Z,32.63
2018-07-15T11:36:01.623Z,34.44
2018-07-15T11:38:36.811Z,33.18
2018-07-15T11:41:05.218Z,32.48
2018-07-15T11:43:33.355Z,33.50
2018-07-15T11:46:01.620Z,32.40
2018-07-15T11:48:29.885Z,31.62
2018-07-15T11:50:58.057Z,32.12
2018-07-15T11:53:26.147Z,31.10
2018-07-15T11:55:54.786Z,30.71
2018-07-15T11:58:22.879Z,31.48
2018-07-15T12:00:51.014Z,31.39
2018-07-15T12:03:20.249Z,29.86
2018-07-15T12:05:48.712Z,28.36
2018-07-15T12:08:16.822Z,29.38
2018-07-15T12:10:45.479Z,29.24
2018-07-15T12:13:18.114Z,30.08
2018-07-15T12:15:47.507Z,27.27
2018-07-15T12:18:16.784Z,26.24
2018-07-15T12:20:45.669Z,26.22
2018-07-15T12:23:14.672Z,26.09
2018-07-15T12:25:43.978Z,25.10
2018-07-15T12:28:13.266Z,24.75
2018-07-15T12:30:42.361Z,23.26
2018-07-15T12:33:20.976Z,23.39
2018-07-15T12:35:58.856Z,23.00
2018-07-15T12:38:28.575Z,22.21
2018-07-15T12:40:58.017Z,21.19
2018-07-15T12:43:27.303Z,22.32
2018-07-15T12:45:57.060Z,19.34
2018-07-15T12:48:25.324Z,21.40
2018-07-15T12:50:53.676Z,22.15
2018-07-15T12:53:22.024Z,23.73
2018-07-15T12:55:50.704Z,24.71
2018-07-15T12:58:19.039Z,25.02
2018-07-15T13:00:47.519Z,23.17
2018-07-15T13:03:16.250Z,21.17
2018-07-15T13:05:44.725Z,19.45
2018-07-15T13:08:13.008Z,18.56
2018-07-15T13:10:41.417Z,20.52
2018-07-15T13:13:10.765Z,22.29
2018-07-15T13:15:39.372Z,23.40
2018-07-15T13:18:07.649Z,24.07
2018-07-15T13:20:36.166Z,24.42
2018-07-15T13:23:04.777Z,23.64
2018-07-15T13:25:33.389Z,24.14
2018-07-15T13:28:01.702Z,23.60
2018-07-15T13:30:29.944Z,23.12
2018-07-15T13:32:58.215Z,22.64
2018-07-15T13:35:26.498Z,24.09
2018-07-15T13:37:54.676Z,24.14
2018-07-15T13:40:22.829Z,22.43
2018-07-15T13:42:51.021Z,20.07
2018-07-15T13:45:19.101Z,19.46
2018-07-15T13:47:47.457Z,17.93
2018-07-15T13:50:15.775Z,17.56
2018-07-15T13:52:44.622Z,19.00
2018-07-15T13:55:12.786Z,19.18
2018-07-15T13:57:41.177Z,17.34
2018-07-15T14:00:10.907Z,17.12
2018-07-15T14:02:40.263Z,17.49
2018-07-15T14:05:08.527Z,18.48
2018-07-15T14:07:36.714Z,17.35
2018-07-15T14:10:04.955Z,17.52
2018-07-15T14:12:33.187Z,18.39
2018-07-15T14:15:01.413Z,20.11
2018-07-15T14:17:29.853Z,19.47
2018-07-15T14:19:58.129Z,19.88
2018-07-15T14:22:26.501Z,20.92
2018-07-15T14:24:54.846Z,22.70
2018-07-15T14:27:22.979Z,20.77
2018-07-15T14:29:51.333Z,22.06
2018-07-15T14:32:23.594Z,21.49
2018-07-15T14:34:51.924Z,21.88
2018-07-15T14:37:20.908Z,21.91
2018-07-15T14:39:49.178Z,22.57
2018-07-15T14:42:17.291Z,22.28
2018-07-15T14:44:45.446Z,23.08
2018-07-15T14:47:13.653Z,22.23
2018-07-15T14:49:41.778Z,22.79
2018-07-15T14:52:10.109Z,22.00
2018-07-15T14:54:38.242Z,23.42
2018-07-15T14:57:06.456Z,24.49
2018-07-15T14:59:34.518Z,24.75
2018-07-15T15:02:02.624Z,23.96
2018-07-15T15:04:30.837Z,23.57
2018-07-15T15:06:58.992Z,24.63
2018-07-15T15:09:27.247Z,24.68
2018-07-15T15:11:55.319Z,24.32
2018-07-15T15:14:23.377Z,24.99
2018-07-15T15:16:51.483Z,27.04
2018-07-15T15:19:19.639Z,29.82
2018-07-15T15:21:47.795Z,32.16
2018-07-15T15:24:15.887Z,34.75
2018-07-15T15:26:44.180Z,39.25
2018-07-15T15:29:12.329Z,46.55
2018-07-15T15:31:40.422Z,43.61
2018-07-15T15:34:09.351Z,46.78
2018-07-15T15:36:37.517Z,58.46
2018-07-15T15:39:06.233Z,52.97
2018-07-15T15:41:34.386Z,52.33
2018-07-15T15:44:02.550Z,51.83
2018-07-15T15:46:30.691Z,52.57
2018-07-15T15:48:58.813Z,53.04
2018-07-15T15:51:26.957Z,51.28
2018-07-15T15:53:55.180Z,49.08
2018-07-15T15:56:23.342Z,45.23
2018-07-15T15:58:51.482Z,44.75
2018-07-15T16:01:19.594Z,44.21
2018-07-15T16:03:47.654Z,44.78
2018-07-15T16:06:15.807Z,49.51
2018-07-15T16:08:43.878Z,47.62
2018-07-15T16:11:12.101Z,50.08
2018-07-15T16:13:40.220Z,47.27
2018-07-15T16:16:08.393Z,46.15
2018-07-15T16:18:36.426Z,45.17
2018-07-15T16:21:04.502Z,46.91
2018-07-15T16:23:32.659Z,46.56
2018-07-15T16:26:00.934Z,47.97
2018-07-15T16:28:29.167Z,48.03
2018-07-15T16:30:57.814Z,47.60
2018-07-15T16:33:25.883Z,48.01
2018-07-15T16:35:53.958Z,47.41
2018-07-15T16:38:22.035Z,45.82
2018-07-15T16:40:51.187Z,44.29
2018-07-15T16:43:19.238Z,45.22
2018-07-15T16:45:47.322Z,44.93
2018-07-15T16:48:15.370Z,44.70
2018-07-15T16:50:43.456Z,44.06
2018-07-15T16:53:11.518Z,45.67
2018-07-15T16:55:39.924Z,48.38
2018-07-15T16:58:08.014Z,51.15
2018-07-15T17:00:36.110Z,52.38
2018-07-15T17:03:04.255Z,51.44
2018-07-15T17:05:32.308Z,51.70
2018-07-15T17:08:00.430Z,50.05
2018-07-15T17:10:28.547Z,49.61
2018-07-15T17:12:56.768Z,49.39
2018-07-15T17:15:25.054Z,46.88
2018-07-15T17:17:53.153Z,46.52
2018-07-15T17:20:21.369Z,47.22
2018-07-15T17:22:49.425Z,47.26
2018-07-15T17:25:17.750Z,47.06
2018-07-15T17:27:45.860Z,49.05
2018-07-15T17:30:13.918Z,49.77
2018-07-15T17:32:42.069Z,50.34
2018-07-15T17:35:10.156Z,50.35
2018-07-15T17:37:38.423Z,51.03
2018-07-15T17:40:06.745Z,50.63
2018-07-15T17:42:34.857Z,50.36
2018-07-15T17:45:03.022Z,51.41
2018-07-15T17:47:31.130Z,50.97
2018-07-15T17:49:59.388Z,51.45
2018-07-15T17:52:27.474Z,51.82
2018-07-15T17:54:55.608Z,51.94
2018-07-15T17:57:23.885Z,51.45
2018-07-15T17:59:52.034Z,51.29
2018-07-15T18:02:20.252Z,50.69
2018-07-15T18:04:48.467Z,51.20
2018-07-15T18:07:16.482Z,51.18
2018-07-15T18:09:45.146Z,50.78
2018-07-15T18:12:13.298Z,50.06
2018-07-15T18:14:41.443Z,49.27
2018-07-15T18:17:09.758Z,49.43
2018-07-15T18:19:37.897Z,49.17
2018-07-15T18:22:06.026Z,48.90
2018-07-15T18:24:34.398Z,49.21
2018-07-15T18:27:02.590Z,48.97
2018-07-15T18:29:31.052Z,48.76
2018-07-15T18:31:59.405Z,48.12
2018-07-15T18:34:27.679Z,48.63
2018-07-15T18:36:56.342Z,46.92
2018-07-15T18:39:24.455Z,47.15
2018-07-15T18:41:52.690Z,48.20
2018-07-15T18:44:21.810Z,47.63
2018-07-15T18:46:50.190Z,48.34
2018-07-15T18:49:18.352Z,47.39
2018-07-15T18:51:46.521Z,48.99
2018-07-15T18:54:14.817Z,47.93
2018-07-15T18:56:42.945Z,47.46
2018-07-15T18:59:11.210Z,47.48
2018-07-15T19:01:39.239Z,48.67
2018-07-15T19:04:07.529Z,48.76
2018-07-15T19:06:35.625Z,49.74
2018-07-15T19:09:04.466Z,50.65
2018-07-15T19:11:32.589Z,48.82
2018-07-15T19:14:00.966Z,48.32
2018-07-15T19:16:29.159Z,47.98
2018-07-15T19:18:57.233Z,48.46
2018-07-15T19:21:25.490Z,47.09
2018-07-15T19:23:53.675Z,47.56
2018-07-15T19:26:21.869Z,47.55
2018-07-15T19:28:49.959Z,48.21
2018-07-15T19:31:18.019Z,48.97
2018-07-15T19:33:46.188Z,49.50
2018-07-15T19:36:14.294Z,49.38
2018-07-15T19:38:42.367Z,50.42
2018-07-15T19:41:10.439Z,48.48
2018-07-15T19:43:38.605Z,47.96
2018-07-15T19:46:06.674Z,47.11
2018-07-15T19:48:34.755Z,48.63
2018-07-15T19:51:02.868Z,48.92
2018-07-15T19:56:25.094Z,48.14
2018-07-15T19:58:53.284Z,48.46
2018-07-15T20:01:22.091Z,49.55
2018-07-15T20:03:50.089Z,50.14
2018-07-15T20:06:18.206Z,49.89
2018-07-15T20:08:46.298Z,49.73
2018-07-15T20:11:14.506Z,49.10
2018-07-15T20:13:42.636Z,50.45
2018-07-15T20:16:10.895Z,50.49
2018-07-15T20:18:39.447Z,50.41
2018-07-15T20:21:07.519Z,50.70
2018-07-15T20:23:35.669Z,50.68
2018-07-15T20:26:03.747Z,49.40
2018-07-15T20:28:31.893Z,49.95
2018-07-15T20:31:00.014Z,51.04
2018-07-15T20:33:28.130Z,51.04
2018-07-15T20:35:56.267Z,53.54
2018-07-15T20:38:24.387Z,53.24
2018-07-15T20:40:54.519Z,52.74
2018-07-15T20:43:22.591Z,52.53
2018-07-15T20:45:50.658Z,52.59
2018-07-15T20:48:19.537Z,54.38
2018-07-15T20:50:47.646Z,55.35
2018-07-15T20:53:15.732Z,54.97
2018-07-15T20:55:44.164Z,53.96
2018-07-15T20:58:12.476Z,52.93
2018-07-15T21:00:40.611Z,53.29
2018-07-15T21:03:08.771Z,55.91
2018-07-15T21:05:37.208Z,53.47
2018-07-15T21:08:06.556Z,54.24
2018-07-15T21:10:34.862Z,53.86
2018-07-15T21:13:03.458Z,54.64
2018-07-15T21:15:31.592Z,53.99
2018-07-15T21:18:00.076Z,53.79
2018-07-15T21:20:28.470Z,54.45
2018-07-15T21:22:56.828Z,54.18
2018-07-15T21:25:25.014Z,53.08
2018-07-15T21:27:53.134Z,52.47
2018-07-15T21:30:22.308Z,53.18
2018-07-15T21:32:50.401Z,54.91
2018-07-15T21:35:18.539Z,54.59
2018-07-15T21:37:46.694Z,53.45
2018-07-15T21:40:15.009Z,52.77
2018-07-15T21:42:43.213Z,53.37
2018-07-15T21:45:11.457Z,54.37
2018-07-15T21:47:39.625Z,54.20
2018-07-15T21:50:07.942Z,54.59
2018-07-15T21:52:36.263Z,55.38
2018-07-15T21:55:04.350Z,54.47
2018-07-15T21:57:32.542Z,55.10
2018-07-15T22:00:00.679Z,54.18
2018-07-15T22:02:28.851Z,54.50
2018-07-15T22:04:57.664Z,53.56
2018-07-15T22:07:37.290Z,54.97
2018-07-15T22:10:18.819Z,54.15
2018-07-15T22:12:47.120Z,54.44
2018-07-15T22:15:15.447Z,53.69
2018-07-15T22:17:43.519Z,54.46
2018-07-15T22:20:11.664Z,54.35
2018-07-15T22:22:39.821Z,54.23
2018-07-15T22:25:07.929Z,54.78
2018-07-15T22:27:36.218Z,54.78
2018-07-15T22:30:04.292Z,55.81
2018-07-15T22:32:32.486Z,56.05
2018-07-15T22:35:00.715Z,56.46
2018-07-15T22:37:28.801Z,56.13
2018-07-15T22:39:56.915Z,56.06
2018-07-15T22:42:25.366Z,56.80
2018-07-15T22:44:53.412Z,56.91
2018-07-15T22:47:21.678Z,57.42
2018-07-15T22:49:49.822Z,57.07
2018-07-15T22:52:17.910Z,56.09
2018-07-15T22:54:46.038Z,56.93
2018-07-15T22:57:14.216Z,57.14
2018-07-15T22:59:42.284Z,57.34
2018-07-15T23:02:10.407Z,57.49
2018-07-15T23:05:55.249Z,57.66
2018-07-15T23:08:24.219Z,56.87
2018-07-15T23:10:52.908Z,57.58
2018-07-15T23:13:21.197Z,57.04
2018-07-15T23:15:49.883Z,56.86
2018-07-15T23:18:17.966Z,58.34
2018-07-15T23:20:46.820Z,57.44
2018-07-15T23:23:15.315Z,57.79
2018-07-15T23:25:43.372Z,57.47
2018-07-15T23:28:12.590Z,58.00
2018-07-15T23:30:42.379Z,58.47
2018-07-15T23:33:11.006Z,57.72
2018-07-15T23:35:39.086Z,58.05
2018-07-15T23:38:07.208Z,57.71
2018-07-15T23:40:35.326Z,58.79
2018-07-15T23:43:03.712Z,57.07
2018-07-15T23:45:32.975Z,58.03
2018-07-15T23:48:01.162Z,58.56
2018-07-15T23:50:29.346Z,57.66
2018-07-15T23:52:57.474Z,58.52
2018-07-15T23:55:25.883Z,58.93
2018-07-15T23:57:54.367Z,60.11
